Terminal Aerodrome Forecast
Issued by NWS Wilmington, OH

Current Version | Previous Version | Graphics & Text | Print | Product List | Glossary Off
Versions: 1 2 3 4 5 6 7 8 9 10 11 12 13 14 15 16

000
FTUS41 KILN 010525
TAFDAY
TAF
KDAY 010525Z 0106/0206 11006KT P6SM FEW070 SCT200
     FM011400 14007KT P6SM BKN120
     FM012000 19007KT P6SM VCSH BKN070
     FM012200 21007KT P6SM VCTS BKN060CB
     FM020100 24004KT P6SM SCT060 BKN250=

USA.gov is the U.S. government's official web portal to all federal, state and local government web resources and services.